Time;durP1;ratioP1;P1;durP2;ratioP2;P2;SDS_P1;SDS_P2;PMS_P1;PMS_P2;Temp;Humidity;BMP_temperature;BMP_pressure;BME280_temperature;BME280_humidity;BME280_pressure;Samples;Min_cycle;Max_cycle;Signal;HPM_P1;HPM_P2
2021/05/05 00:02:25;;;;;;;12.35;6.40;;;;;;;12.82;47.06;97652.73;2264407;79;21240;-77
2021/05/05 00:05:26;;;;;;;13.38;6.70;;;;;;;12.76;47.19;97650.62;2264713;79;21371;-76
2021/05/05 00:08:27;;;;;;;15.50;6.87;;;;;;;12.71;47.27;97645.05;2264485;79;21102;-76
2021/05/05 00:11:29;;;;;;;56.37;9.48;;;;;;;12.68;47.50;97650.33;2264629;79;21237;-77
2021/05/05 00:14:30;;;;;;;23.90;7.75;;;;;;;12.63;47.60;97649.54;2263321;77;21280;-76
2021/05/05 00:17:31;;;;;;;37.88;8.73;;;;;;;12.60;47.71;97649.59;2250686;79;21106;-77
2021/05/05 00:20:32;;;;;;;16.48;6.95;;;;;;;12.57;47.87;97644.40;2250613;79;21519;-77
2021/05/05 00:23:33;;;;;;;10.32;7.30;;;;;;;12.56;48.11;97636.13;2250773;79;21122;-77
2021/05/05 00:26:34;;;;;;;11.85;6.90;;;;;;;12.54;48.19;97635.28;2250617;79;21075;-77
2021/05/05 00:29:35;;;;;;;9.73;7.03;;;;;;;12.49;48.37;97626.19;2249827;79;21102;-77
2021/05/05 00:32:36;;;;;;;10.25;6.35;;;;;;;12.42;48.60;97629.78;2249961;79;21134;-77
2021/05/05 00:35:37;;;;;;;12.37;6.72;;;;;;;12.34;48.67;97626.42;2249926;79;21142;-77
2021/05/05 00:38:38;;;;;;;13.13;6.97;;;;;;;12.29;48.89;97616.46;2250047;79;21248;-77
2021/05/05 00:41:39;;;;;;;11.20;6.97;;;;;;;12.23;49.14;97608.70;2249808;79;21114;-77
2021/05/05 00:44:40;;;;;;;18.75;6.87;;;;;;;12.18;49.36;97597.44;2249761;79;21233;-77
2021/05/05 00:47:41;;;;;;;10.67;6.50;;;;;;;12.13;49.43;97608.80;2249817;79;21228;-77
2021/05/05 00:50:42;;;;;;;11.57;7.17;;;;;;;12.11;49.66;97613.19;2249802;79;21112;-76
2021/05/05 00:53:43;;;;;;;13.33;7.00;;;;;;;12.11;49.83;97605.78;2249782;79;21094;-76
2021/05/05 00:56:44;;;;;;;13.80;6.77;;;;;;;12.10;49.96;97600.13;2249859;79;21138;-76
2021/05/05 00:59:45;;;;;;;14.17;6.60;;;;;;;12.09;49.94;97604.94;2249779;79;21071;-77
2021/05/05 01:02:46;;;;;;;12.13;6.83;;;;;;;12.08;50.24;97604.08;2249792;79;21232;-77
2021/05/05 01:05:48;;;;;;;13.90;6.93;;;;;;;12.07;50.35;97601.48;2249764;79;21244;-76
2021/05/05 01:08:49;;;;;;;19.87;7.23;;;;;;;12.06;50.34;97603.23;2249890;79;21356;-76
2021/05/05 01:11:50;;;;;;;14.67;6.60;;;;;;;12.07;50.48;97596.25;2249795;79;21114;-76
2021/05/05 01:14:51;;;;;;;13.00;6.93;;;;;;;12.07;50.70;97603.66;2249627;78;21248;-76
2021/05/05 01:17:52;;;;;;;198.23;19.00;;;;;;;12.08;50.55;97599.29;2249770;79;21395;-78
2021/05/05 01:20:53;;;;;;;22.87;8.43;;;;;;;12.10;50.67;97596.20;2250035;79;21082;-76
2021/05/05 01:23:54;;;;;;;19.37;8.07;;;;;;;12.12;50.76;97593.98;2249985;79;21102;-76
2021/05/05 01:26:55;;;;;;;17.37;7.80;;;;;;;12.13;50.68;97597.03;2249736;79;21071;-76
2021/05/05 01:29:56;;;;;;;20.40;9.00;;;;;;;12.13;50.71;97591.80;2249711;79;21119;-76
2021/05/05 01:32:57;;;;;;;19.73;7.67;;;;;;;12.12;50.85;97595.30;2249846;79;21102;-77
2021/05/05 01:35:58;;;;;;;14.23;7.43;;;;;;;12.12;50.98;97593.13;2249724;79;21110;-76
2021/05/05 01:38:59;;;;;;;15.67;7.40;;;;;;;12.11;51.08;97588.34;2249681;79;21133;-76
2021/05/05 01:42:00;;;;;;;12.40;6.83;;;;;;;12.10;51.05;97586.61;2249706;79;21075;-77
2021/05/05 01:45:01;;;;;;;11.87;6.10;;;;;;;12.09;51.18;97578.34;2250026;78;21408;-77
2021/05/05 01:48:02;;;;;;;11.97;6.90;;;;;;;12.02;51.26;97579.76;2249744;79;21288;-77
2021/05/05 01:51:03;;;;;;;19.07;7.33;;;;;;;11.93;51.45;97587.28;2249709;79;21110;-76
2021/05/05 01:54:04;;;;;;;7.63;5.77;;;;;;;11.86;51.68;97584.77;2249837;79;21240;-77
2021/05/05 01:57:05;;;;;;;13.27;6.70;;;;;;;11.78;51.85;97577.90;2249684;79;21150;-76
2021/05/05 02:00:06;;;;;;;13.77;6.30;;;;;;;11.73;52.01;97577.06;2249938;79;21122;-76
2021/05/05 02:03:08;;;;;;;11.33;6.07;;;;;;;11.69;52.22;97579.29;2249715;79;21130;-76
2021/05/05 02:06:09;;;;;;;13.07;5.90;;;;;;;11.68;52.37;97574.08;2249722;79;21114;-77
2021/05/05 02:09:10;;;;;;;9.83;5.87;;;;;;;11.64;52.37;97567.16;2249727;79;21106;-76
2021/05/05 02:12:11;;;;;;;10.80;6.37;;;;;;;11.59;52.54;97574.20;2249923;79;21118;-76
2021/05/05 02:15:12;;;;;;;24.93;7.33;;;;;;;11.53;52.80;97578.20;2250804;78;21141;-76
2021/05/05 02:18:14;;;;;;;11.63;6.53;;;;;;;11.52;53.03;97582.55;2260385;79;21118;-77
2021/05/05 02:21:15;;;;;;;11.27;6.43;;;;;;;11.51;53.02;97582.13;2260548;79;21113;-76
2021/05/05 02:24:16;;;;;;;9.80;6.03;;;;;;;11.52;53.09;97576.47;2260463;79;21106;-77
2021/05/05 02:27:20;;;;;;;12.93;6.70;;;;;;;11.52;53.08;97571.23;2260583;79;21102;-77
2021/05/05 02:30:21;;;;;;;26.03;8.10;;;;;;;11.48;53.23;97569.10;2260432;79;21106;-77
2021/05/05 02:33:22;;;;;;;13.67;5.87;;;;;;;11.49;53.29;97579.98;2260346;79;21074;-76
2021/05/05 02:36:23;;;;;;;12.77;5.80;;;;;;;11.52;53.25;97576.47;2260422;79;21158;-76
2021/05/05 02:39:24;;;;;;;16.97;5.90;;;;;;;11.54;53.32;97572.08;2260443;79;21074;-77
2021/05/05 02:42:25;;;;;;;11.97;5.40;;;;;;;11.53;53.37;97568.61;2260314;79;21343;-76
2021/05/05 02:45:26;;;;;;;13.27;6.03;;;;;;;11.55;53.50;97564.67;2260517;77;21137;-76
2021/05/05 02:48:27;;;;;;;9.93;5.80;;;;;;;11.55;53.53;97560.75;2260319;79;21071;-77
2021/05/05 02:51:28;;;;;;;7.80;5.37;;;;;;;11.56;53.51;97562.03;2260281;79;21352;-77
2021/05/05 02:54:29;;;;;;;24.27;6.57;;;;;;;11.58;53.57;97560.70;2260443;79;21399;-77
2021/05/05 02:57:30;;;;;;;12.73;5.50;;;;;;;11.63;53.49;97568.05;2260288;79;21102;-77
2021/05/05 03:00:31;;;;;;;29.53;10.77;;;;;;;11.66;53.49;97565.39;2260429;79;21403;-76
2021/05/05 03:03:32;;;;;;;21.83;5.90;;;;;;;11.69;53.46;97570.58;2260601;79;21125;-76
2021/05/05 03:06:33;;;;;;;14.00;5.97;;;;;;;11.71;53.44;97571.43;2260515;79;21093;-76
2021/05/05 03:09:35;;;;;;;10.87;5.90;;;;;;;11.74;53.40;97568.33;2260387;79;21070;-77
2021/05/05 03:12:36;;;;;;;11.23;6.40;;;;;;;11.77;53.56;97570.94;2260440;79;21090;-77
2021/05/05 03:15:37;;;;;;;16.10;6.10;;;;;;;11.77;53.52;97572.66;2258399;77;21415;-76
2021/05/05 03:18:38;;;;;;;130.40;16.57;;;;;;;11.77;53.49;97572.25;2249699;79;21114;-77
2021/05/05 03:21:39;;;;;;;27.33;7.33;;;;;;;11.78;53.57;97567.44;2249613;79;21142;-77
2021/05/05 03:24:40;;;;;;;20.40;6.93;;;;;;;11.77;53.96;97571.34;2249658;79;21102;-76
2021/05/05 03:27:41;;;;;;;22.23;6.87;;;;;;;11.74;53.69;97567.03;2249632;79;21349;-77
2021/05/05 03:30:42;;;;;;;40.10;7.57;;;;;;;11.76;54.02;97577.46;2249757;79;21349;-77
2021/05/05 03:33:43;;;;;;;33.83;7.10;;;;;;;11.75;54.16;97570.50;2249857;79;21122;-77
2021/05/05 03:36:46;;;;;;;24.97;6.03;;;;;;;11.75;54.87;97571.81;2249518;79;21090;-77
2021/05/05 03:39:47;;;;;;;23.20;8.87;;;;;;;11.70;54.99;97567.09;2249817;79;21094;-78
2021/05/05 03:42:48;;;;;;;15.57;8.57;;;;;;;11.66;54.92;97577.16;2249598;79;21114;-77
2021/05/05 03:45:49;;;;;;;24.93;9.10;;;;;;;11.62;55.40;97571.10;2249564;79;21260;-77
2021/05/05 03:48:50;;;;;;;89.47;15.17;;;;;;;11.56;55.83;97569.87;2249775;79;21114;-77
2021/05/05 03:51:51;;;;;;;100.23;13.83;;;;;;;11.54;55.86;97581.23;2249862;79;21348;-77
2021/05/05 03:54:52;;;;;;;153.43;13.97;;;;;;;11.52;55.82;97579.08;2249302;79;21157;-77
2021/05/05 03:57:53;;;;;;;34.27;11.17;;;;;;;11.48;56.09;97586.95;2249615;79;21086;-76
2021/05/05 04:00:55;;;;;;;15.37;9.20;;;;;;;11.42;56.29;97579.19;2249680;79;21549;-77
2021/05/05 04:03:56;;;;;;;18.73;9.03;;;;;;;11.38;56.59;97587.94;2249837;79;21114;-77
2021/05/05 04:06:59;;;;;;;99.17;13.80;;;;;;;11.37;56.87;97582.30;2249960;79;21078;-78
2021/05/05 04:10:00;;;;;;;46.40;9.27;;;;;;;11.36;57.05;97585.79;2250499;79;21105;-77
2021/05/05 04:13:02;;;;;;;34.50;11.97;;;;;;;11.36;57.07;97591.02;2250426;79;21106;-77
2021/05/05 04:16:03;;;;;;;395.53;28.37;;;;;;;11.37;57.41;97592.74;2252106;79;21134;-77
2021/05/05 04:19:04;;;;;;;36.20;8.10;;;;;;;11.38;57.52;97585.77;2260757;79;21372;-77
2021/05/05 04:22:05;;;;;;;9.97;5.97;;;;;;;11.40;57.60;97578.78;2260610;79;21102;-77
2021/05/05 04:25:06;;;;;;;11.07;6.20;;;;;;;11.42;57.89;97568.73;2260591;79;21188;-77
2021/05/05 04:28:07;;;;;;;9.93;6.47;;;;;;;11.52;57.94;97564.70;2260798;79;21436;-77
2021/05/05 04:31:08;;;;;;;237.07;21.47;;;;;;;11.70;57.84;97570.56;2260382;79;21105;-77
2021/05/05 04:34:09;;;;;;;24.23;7.50;;;;;;;11.90;57.53;97580.79;2259099;79;21101;-76
2021/05/05 04:37:10;;;;;;;11.43;6.45;;;;;;;12.09;57.87;97577.48;2259335;79;21141;-77
2021/05/05 04:40:11;;;;;;;23.30;7.65;;;;;;;12.22;58.02;97581.67;2259645;79;21379;-77
2021/05/05 04:43:12;;;;;;;33.83;11.88;;;;;;;12.36;57.55;97584.09;2259630;79;21082;-77
2021/05/05 04:46:13;;;;;;;135.88;17.42;;;;;;;12.62;57.12;97580.61;2258427;79;21172;-78
2021/05/05 04:49:14;;;;;;;80.62;15.15;;;;;;;12.81;57.01;97578.55;2259336;79;21110;-81
2021/05/05 04:52:15;;;;;;;46.50;12.00;;;;;;;13.02;56.25;97581.27;2259899;79;21228;-78
2021/05/05 04:55:16;;;;;;;30.23;8.88;;;;;;;13.24;56.09;97576.08;2259169;79;21145;-78
2021/05/05 04:58:17;;;;;;;10.93;5.67;;;;;;;13.41;55.60;97569.66;2259082;79;22002;-78
2021/05/05 05:01:18;;;;;;;7.22;4.67;;;;;;;13.66;53.84;97570.88;2259827;79;21108;-78
2021/05/05 05:04:19;;;;;;;18.32;4.47;;;;;;;14.11;52.98;97569.51;2259858;79;21113;-77
2021/05/05 05:07:21;;;;;;;26.37;5.78;;;;;;;14.62;51.60;97560.89;2260608;79;21105;-78
2021/05/05 05:10:24;;;;;;;12.20;4.92;;;;;;;15.03;51.01;97558.55;2260615;79;21105;-77
2021/05/05 05:13:25;;;;;;;9.78;4.37;;;;;;;15.42;49.93;97555.75;2260564;79;21117;-77
2021/05/05 05:16:26;;;;;;;7.42;3.72;;;;;;;15.53;48.73;97557.62;2257914;77;21091;-77
2021/05/05 05:19:27;;;;;;;7.20;4.05;;;;;;;15.61;48.16;97557.02;2249940;79;21079;-77
2021/05/05 05:22:28;;;;;;;5.45;3.27;;;;;;;15.67;47.94;97559.47;2249928;79;21375;-77
2021/05/05 05:25:29;;;;;;;12.85;5.03;;;;;;;15.72;47.73;97561.52;2249886;79;21415;-77
2021/05/05 05:28:30;;;;;;;14.78;4.55;;;;;;;15.80;47.64;97556.03;2250182;79;21079;-79
2021/05/05 05:31:31;;;;;;;36.35;7.85;;;;;;;16.10;47.14;97559.52;2250239;79;21110;-78
2021/05/05 05:34:33;;;;;;;9.78;4.37;;;;;;;16.45;46.58;97561.91;2249893;79;21122;-77
2021/05/05 05:37:34;;;;;;;6.40;3.87;;;;;;;16.60;45.83;97570.26;2249681;79;21118;-79
2021/05/05 05:40:35;;;;;;;11.12;4.70;;;;;;;16.51;45.89;97568.78;2249997;79;21110;-79
2021/05/05 05:43:38;;;;;;;7.75;4.08;;;;;;;16.45;45.51;97561.91;2250127;79;21340;-79
2021/05/05 05:46:39;;;;;;;19.20;4.70;;;;;;;16.55;45.69;97567.77;2249778;79;21154;-79
2021/05/05 05:49:40;;;;;;;21.15;4.97;;;;;;;16.83;45.63;97567.77;2249828;79;21125;-77
2021/05/05 05:52:41;;;;;;;18.32;4.60;;;;;;;17.23;45.13;97573.85;2249780;79;21407;-78
2021/05/05 05:55:44;;;;;;;17.15;4.70;;;;;;;17.66;44.77;97567.97;2250221;79;21141;-78
2021/05/05 05:58:45;;;;;;;10.90;3.40;;;;;;;18.11;43.54;97569.80;2250020;79;21388;-79
2021/05/05 06:01:46;;;;;;;9.50;4.65;;;;;;;18.39;43.11;97571.80;2250094;79;21388;-79
2021/05/05 06:04:47;;;;;;;8.35;5.12;;;;;;;18.51;42.72;97570.91;2250363;79;21118;-78
2021/05/05 06:07:49;;;;;;;12.33;4.75;;;;;;;18.43;42.41;97569.89;2250319;79;21114;-78
2021/05/05 06:10:50;;;;;;;10.25;4.65;;;;;;;18.42;42.75;97572.99;2250179;79;21400;-79
2021/05/05 06:13:53;;;;;;;38.65;6.62;;;;;;;18.51;42.58;97563.84;2250347;79;21384;-78
2021/05/05 06:16:54;;;;;;;18.37;5.35;;;;;;;18.67;42.39;97556.19;2253241;79;21414;-78
2021/05/05 06:19:55;;;;;;;9.25;4.80;;;;;;;18.93;42.25;97556.42;2261545;79;21395;-78
2021/05/05 06:22:56;;;;;;;34.58;7.03;;;;;;;19.21;41.29;97546.88;2261531;79;21228;-78
2021/05/05 06:25:57;;;;;;;16.85;5.30;;;;;;;19.19;40.82;97534.19;2261670;79;21133;-78
2021/05/05 06:28:58;;;;;;;22.30;5.62;;;;;;;19.10;40.76;97534.13;2260574;79;21515;-79
2021/05/05 06:31:59;;;;;;;71.77;10.08;;;;;;;18.92;40.67;97536.20;2260938;79;21411;-78
2021/05/05 06:35:00;;;;;;;32.20;6.53;;;;;;;18.79;41.03;97541.14;2260330;79;21277;-78
2021/05/05 06:38:01;;;;;;;49.93;7.47;;;;;;;18.62;40.70;97534.38;2261301;79;21232;-78
2021/05/05 06:41:03;;;;;;;9.18;5.65;;;;;;;18.53;41.01;97535.57;2260913;79;21102;-77
2021/05/05 06:44:04;;;;;;;8.58;5.17;;;;;;;18.64;41.37;97531.20;2261109;79;21252;-77
2021/05/05 06:47:05;;;;;;;7.58;5.22;;;;;;;18.80;41.84;97520.39;2261522;79;21130;-77
2021/05/05 06:50:06;;;;;;;11.33;5.72;;;;;;;19.03;41.03;97514.98;2261503;79;21252;-77
2021/05/05 06:53:07;;;;;;;40.23;7.58;;;;;;;19.25;40.93;97508.79;2261641;79;21499;-78
2021/05/05 06:56:08;;;;;;;9.25;5.20;;;;;;;19.41;40.55;97516.45;2261663;79;21158;-78
2021/05/05 06:59:09;;;;;;;8.40;4.60;;;;;;;19.58;40.36;97510.42;2261854;79;21121;-80
2021/05/05 07:02:10;;;;;;;6.00;4.00;;;;;;;19.73;39.25;97501.32;2261673;79;21089;-79
2021/05/05 07:05:11;;;;;;;13.05;4.60;;;;;;;19.91;38.79;97501.39;2261926;79;21175;-80
2021/05/05 07:08:12;;;;;;;4.25;3.50;;;;;;;20.27;37.70;97503.66;2261360;79;21534;-78
2021/05/05 07:11:15;;;;;;;4.90;3.35;;;;;;;20.43;37.25;97499.83;2261264;79;21390;-80
2021/05/05 07:14:16;;;;;;;10.33;3.90;;;;;;;20.23;36.71;97492.81;2262000;79;21126;-79
2021/05/05 07:17:17;;;;;;;5.42;3.12;;;;;;;19.97;37.00;97498.02;2256829;79;21523;-78
2021/05/05 07:20:19;;;;;;;7.92;3.58;;;;;;;19.89;37.67;97484.72;2250233;79;21122;-78
2021/05/05 07:23:20;;;;;;;6.95;3.27;;;;;;;19.83;38.03;97488.52;2250256;79;21078;-79
2021/05/05 07:26:21;;;;;;;4.47;3.77;;;;;;;19.83;37.25;97487.66;2250329;79;21237;-79
2021/05/05 07:29:22;;;;;;;9.05;3.90;;;;;;;19.78;37.18;97487.02;2250564;79;21102;-78
2021/05/05 07:32:23;;;;;;;6.40;3.80;;;;;;;19.69;37.38;97486.51;2250539;79;21256;-79
2021/05/05 07:35:25;;;;;;;5.45;4.05;;;;;;;19.70;36.83;97491.34;2250363;79;21146;-79
2021/05/05 07:48:51;;;;;;;6.42;4.20;;;;;;;19.86;38.08;97471.63;2244964;79;21400;-76
2021/05/05 07:51:52;;;;;;;32.63;5.28;;;;;;;19.84;37.25;97469.52;2250842;79;21106;-79
2021/05/05 07:54:53;;;;;;;6.92;3.17;;;;;;;19.76;37.58;97472.98;2250356;79;21263;-81
2021/05/05 07:57:54;;;;;;;5.08;3.40;;;;;;;19.68;37.10;97477.31;2250385;79;21087;-79
2021/05/05 08:00:55;;;;;;;11.40;3.65;;;;;;;19.68;37.86;97476.84;2250026;79;21217;-77
2021/05/05 08:03:56;;;;;;;7.12;3.80;;;;;;;19.86;38.05;97486.19;2248841;79;21115;-78
2021/05/05 08:06:57;;;;;;;4.20;3.62;;;;;;;19.86;37.37;97482.22;2249651;79;21201;-78
2021/05/05 08:09:58;;;;;;;5.42;3.22;;;;;;;19.77;36.95;97483.50;2249175;79;21106;-81
2021/05/05 08:13:02;;;;;;;6.05;3.85;;;;;;;19.62;36.96;97475.80;2248995;79;21110;-79
2021/05/05 08:16:03;;;;;;;11.73;3.67;;;;;;;19.50;37.17;97475.02;2250790;79;21388;-79
2021/05/05 08:19:04;;;;;;;7.60;3.20;;;;;;;19.36;37.83;97472.99;2250069;79;21133;-78
2021/05/05 08:22:05;;;;;;;60.30;8.10;;;;;;;19.23;37.54;97474.93;2250188;79;21095;-79
2021/05/05 08:25:07;;;;;;;12.78;3.75;;;;;;;19.15;38.39;97481.88;2250518;79;21129;-79
2021/05/05 08:28:08;;;;;;;5.42;4.28;;;;;;;19.19;38.08;97474.67;2250330;79;21126;-80
2021/05/05 08:31:09;;;;;;;5.17;3.40;;;;;;;19.21;38.20;97476.33;2250482;79;21122;-79
2021/05/05 08:34:10;;;;;;;7.05;3.60;;;;;;;19.30;38.11;97471.09;2250303;79;21141;-79
2021/05/05 08:37:12;;;;;;;7.00;3.35;;;;;;;19.61;37.42;97465.29;2250361;79;21260;-78
2021/05/05 08:40:13;;;;;;;5.72;3.00;;;;;;;19.78;37.75;97460.53;2250552;79;21094;-79
2021/05/05 08:43:14;;;;;;;4.87;3.20;;;;;;;20.12;37.55;97462.00;2250744;79;21082;-80
2021/05/05 08:46:15;;;;;;;8.53;2.77;;;;;;;20.22;36.34;97460.63;2251011;79;21233;-79
2021/05/05 08:49:16;;;;;;;9.08;2.40;;;;;;;20.64;35.56;97459.00;2250501;79;21134;-80
2021/05/05 08:52:17;;;;;;;3.70;2.42;;;;;;;21.28;35.14;97456.20;2250542;79;21109;-78
2021/05/05 08:55:18;;;;;;;11.63;3.00;;;;;;;21.69;33.98;97450.48;2250332;79;21157;-80
2021/05/05 08:58:19;;;;;;;5.15;2.35;;;;;;;21.73;33.27;97447.58;2250439;79;21221;-80
2021/05/05 09:01:20;;;;;;;12.53;2.92;;;;;;;21.41;33.28;97446.64;2250430;79;21126;-78
2021/05/05 09:04:22;;;;;;;3.77;2.45;;;;;;;21.05;33.92;97444.58;2250478;79;21163;-80
2021/05/05 09:07:23;;;;;;;11.10;2.90;;;;;;;20.76;35.08;97446.91;2250481;79;21395;-78
2021/05/05 09:10:25;;;;;;;10.35;3.20;;;;;;;20.26;35.39;97443.64;2250486;79;21101;-80
2021/05/05 09:13:26;;;;;;;10.08;3.00;;;;;;;19.65;36.31;97445.22;2250427;79;21121;-79
2021/05/05 09:16:27;;;;;;;9.50;3.00;;;;;;;19.27;36.98;97444.30;2250436;79;21415;-78
2021/05/05 09:19:28;;;;;;;8.13;4.75;;;;;;;18.87;37.83;97446.50;2259719;79;21232;-79
2021/05/05 09:22:29;;;;;;;8.95;3.08;;;;;;;18.44;38.33;97454.91;2260655;79;21117;-80
2021/05/05 09:25:30;;;;;;;6.10;4.30;;;;;;;18.11;38.97;97448.33;2261856;79;21105;-80
2021/05/05 09:28:31;;;;;;;5.03;3.90;;;;;;;17.83;40.25;97452.06;2261246;79;21126;-79
2021/05/05 09:31:33;;;;;;;4.45;3.42;;;;;;;17.68;40.67;97443.89;2261759;79;21236;-79
2021/05/05 09:34:34;;;;;;;5.60;3.75;;;;;;;17.60;40.88;97434.05;2261834;79;21391;-80
2021/05/05 09:37:37;;;;;;;8.88;4.15;;;;;;;17.54;41.27;97433.83;2261346;79;21258;-80
2021/05/05 09:40:38;;;;;;;5.45;3.75;;;;;;;17.53;41.87;97441.80;2261139;79;21078;-78
2021/05/05 09:43:39;;;;;;;5.05;3.87;;;;;;;17.42;41.82;97438.25;2261633;79;21118;-79
2021/05/05 09:46:41;;;;;;;8.43;4.70;;;;;;;17.34;43.17;97437.22;2261059;79;21113;-80
2021/05/05 09:49:42;;;;;;;14.53;3.85;;;;;;;17.51;42.16;97440.55;2260843;79;21150;-78
2021/05/05 09:52:44;;;;;;;9.20;4.00;;;;;;;17.58;42.73;97435.89;2260713;79;21420;-77
2021/05/05 09:55:45;;;;;;;7.08;3.77;;;;;;;17.80;43.05;97424.47;2260816;79;21149;-78
2021/05/05 09:58:46;;;;;;;10.82;4.25;;;;;;;18.00;43.04;97425.45;2260389;79;21118;-78
2021/05/05 10:01:47;;;;;;;7.03;3.52;;;;;;;18.42;42.01;97428.15;2260285;79;21101;-79
2021/05/05 10:04:48;;;;;;;11.30;4.35;;;;;;;18.47;41.73;97422.21;2259411;79;21395;-78
2021/05/05 10:07:49;;;;;;;5.75;4.50;;;;;;;18.45;42.16;97421.41;2259397;79;21304;-79
2021/05/05 10:10:51;;;;;;;8.85;4.15;;;;;;;19.07;41.47;97416.11;2259316;79;21126;-78
2021/05/05 10:13:52;;;;;;;7.92;4.28;;;;;;;18.96;40.58;97415.69;2260407;79;21109;-79
2021/05/05 10:16:54;;;;;;;5.12;3.35;;;;;;;18.29;41.14;97424.30;2261141;79;21142;-77
2021/05/05 10:19:55;;;;;;;16.87;4.67;;;;;;;17.64;43.16;97423.33;2261029;79;21137;-79
2021/05/05 10:22:56;;;;;;;5.97;4.25;;;;;;;17.22;43.39;97427.56;2260724;79;21101;-78
2021/05/05 10:25:57;;;;;;;7.55;4.70;;;;;;;17.01;44.13;97417.34;2260314;79;21101;-79
2021/05/05 10:28:58;;;;;;;10.23;4.58;;;;;;;17.03;44.44;97412.42;2260584;79;21352;-79
2021/05/05 10:32:04;;;;;;;8.20;4.67;;;;;;;17.20;44.78;97420.56;2261137;79;21105;-78
2021/05/05 10:35:03;;;;;;;8.23;5.78;;;;;;;17.39;44.61;97422.55;2260191;79;21118;-78
2021/05/05 10:38:04;;;;;;;12.65;5.17;;;;;;;17.23;43.86;97421.37;2260671;79;21285;-78
2021/05/05 10:41:05;;;;;;;7.85;4.30;;;;;;;17.17;44.65;97420.68;2260407;79;21114;-78
2021/05/05 10:44:06;;;;;;;8.65;4.67;;;;;;;17.22;44.54;97417.01;2260740;79;21118;-78
2021/05/05 10:47:07;;;;;;;4.42;4.03;;;;;;;17.19;45.13;97416.67;2260656;79;21121;-77
2021/05/05 10:50:11;;;;;;;7.62;4.15;;;;;;;17.32;45.12;97424.98;2260705;79;21133;-78
2021/05/05 10:53:11;;;;;;;8.80;4.25;;;;;;;17.24;45.05;97425.27;2260562;79;21117;-78
2021/05/05 10:56:12;;;;;;;10.03;3.90;;;;;;;16.94;45.59;97433.84;2260612;79;21157;-78
2021/05/05 10:59:13;;;;;;;8.80;4.53;;;;;;;16.66;45.87;97435.73;2260580;79;21117;-80
2021/05/05 11:02:15;;;;;;;5.95;3.90;;;;;;;16.47;47.81;97440.28;2260687;79;21126;-78
2021/05/05 11:05:17;;;;;;;6.20;4.85;;;;;;;16.33;48.56;97450.38;2259576;79;21074;-77
2021/05/05 11:08:18;;;;;;;7.65;4.70;;;;;;;16.40;48.85;97453.67;2260853;79;21105;-78
2021/05/05 11:11:19;;;;;;;9.90;4.97;;;;;;;16.43;49.19;97466.28;2261278;79;21105;-79
2021/05/05 11:14:20;;;;;;;9.35;5.00;;;;;;;16.22;49.86;97470.94;2261500;79;21224;-81
2021/05/05 11:17:21;;;;;;;6.25;5.30;;;;;;;16.04;50.76;97478.97;2261149;77;21153;-78
2021/05/05 11:20:22;;;;;;;6.65;5.10;;;;;;;16.10;51.98;97493.25;2249946;78;21146;-78
2021/05/05 11:23:24;;;;;;;7.60;5.35;;;;;;;15.99;52.56;97502.39;2250209;79;21134;-79
2021/05/05 11:26:25;;;;;;;9.68;6.20;;;;;;;15.81;53.56;97513.03;2250189;79;21139;-80
2021/05/05 11:29:26;;;;;;;9.63;6.50;;;;;;;15.21;55.20;97505.94;2250457;79;21130;-78
2021/05/05 11:32:27;;;;;;;7.22;6.33;;;;;;;14.98;56.31;97509.20;2250459;79;21380;-79
2021/05/05 11:35:30;;;;;;;7.70;6.33;;;;;;;14.82;56.55;97531.08;2250221;79;21146;-80
2021/05/05 11:38:35;;;;;;;12.37;6.50;;;;;;;14.67;56.40;97523.56;2250396;79;21141;-79
2021/05/05 11:41:36;;;;;;;9.83;6.17;;;;;;;14.51;57.48;97528.78;2250478;79;21094;-79
2021/05/05 11:44:37;;;;;;;5.90;5.40;;;;;;;14.10;59.76;97538.47;2250401;79;21082;-82
2021/05/05 11:47:39;;;;;;;4.12;3.42;;;;;;;13.50;61.42;97545.43;2249601;79;21225;-81
2021/05/05 11:50:40;;;;;;;3.35;2.52;;;;;;;13.02;61.98;97562.93;2249469;79;21145;-82
2021/05/05 11:53:41;;;;;;;3.12;2.27;;;;;;;12.79;61.16;97554.59;2250094;79;21146;-78
2021/05/05 11:56:43;;;;;;;3.47;3.17;;;;;;;12.68;61.45;97544.30;2249917;79;21130;-80
2021/05/05 11:59:44;;;;;;;6.65;4.72;;;;;;;12.53;62.98;97553.72;2250451;79;21098;-80
2021/05/05 12:02:47;;;;;;;13.68;8.80;;;;;;;12.31;64.32;97561.05;2250446;79;21488;-82
2021/05/05 12:05:48;;;;;;;5.73;4.57;;;;;;;12.18;63.77;97559.51;2250889;79;21126;-80
2021/05/05 12:08:49;;;;;;;7.70;3.10;;;;;;;12.13;64.04;97565.64;2250172;79;21110;-81
2021/05/05 12:11:50;;;;;;;2.73;1.93;;;;;;;12.07;63.34;97579.25;2250683;79;21349;-80
2021/05/05 12:14:54;;;;;;;3.17;2.60;;;;;;;11.93;62.43;97583.80;2250735;79;21114;-80
2021/05/05 12:18:02;;;;;;;3.50;2.60;;;;;;;11.73;62.12;97584.91;2250642;79;21169;-82
2021/05/05 12:20:58;;;;;;;6.70;1.90;;;;;;;11.72;61.41;97594.07;2249544;79;21119;-81
2021/05/05 12:24:00;;;;;;;2.63;1.93;;;;;;;11.84;61.02;97587.41;2251142;79;21101;-82
2021/05/05 12:27:02;;;;;;;3.40;1.52;;;;;;;12.18;60.50;97592.20;2251138;79;21235;-78
2021/05/05 12:30:03;;;;;;;1.87;1.40;;;;;;;12.35;59.81;97590.20;2250923;79;21507;-81
2021/05/05 12:33:04;;;;;;;1.65;1.10;;;;;;;12.35;59.52;97596.30;2250222;79;21491;-81
2021/05/05 12:36:05;;;;;;;1.45;1.37;;;;;;;12.17;59.49;97599.19;2250771;79;21142;-80
2021/05/05 12:39:06;;;;;;;2.25;1.37;;;;;;;11.86;60.44;97606.55;2250659;79;21074;-79
2021/05/05 12:42:07;;;;;;;3.57;2.40;;;;;;;11.38;60.98;97624.52;2250003;79;21091;-80
2021/05/05 12:45:08;;;;;;;4.13;1.90;;;;;;;11.05;61.68;97613.08;2249794;79;21360;-80
2021/05/05 12:48:09;;;;;;;1.40;1.30;;;;;;;10.83;62.76;97618.50;2250448;79;21120;-80
2021/05/05 12:51:10;;;;;;;3.37;1.57;;;;;;;10.70;63.29;97627.31;2250369;79;21121;-80
2021/05/05 12:54:11;;;;;;;3.43;1.97;;;;;;;10.65;63.84;97622.56;2250240;79;21114;-81
2021/05/05 12:57:12;;;;;;;3.17;1.93;;;;;;;10.74;65.64;97623.80;2250404;79;21415;-80
2021/05/05 13:00:13;;;;;;;3.47;2.33;;;;;;;10.68;66.44;97625.16;2250680;79;21105;-80
2021/05/05 13:03:15;;;;;;;3.83;2.33;;;;;;;10.48;68.25;97624.44;2250834;79;21157;-80
2021/05/05 13:06:16;;;;;;;3.30;2.10;;;;;;;10.25;68.60;97628.47;2250614;79;21231;-80
2021/05/05 13:09:20;;;;;;;6.40;1.87;;;;;;;10.12;69.42;97641.13;2250684;79;21404;-80
2021/05/05 13:12:28;;;;;;;4.40;1.95;;;;;;;9.90;70.08;97652.09;2250711;79;21122;-80
2021/05/05 13:15:31;;;;;;;4.87;3.00;;;;;;;9.65;71.06;97647.42;2249297;79;21154;-78
2021/05/05 13:18:52;;;;;;;5.40;3.23;;;;;;;9.50;72.12;97645.70;2252473;79;21414;-80
2021/05/05 13:31:47;;;;;;;4.60;3.37;;;;;;;12.07;67.83;97648.56;2261974;79;21236;-80
2021/05/05 13:34:48;;;;;;;4.10;3.70;;;;;;;13.54;67.65;97634.92;2261787;79;21106;-83
2021/05/05 13:37:49;;;;;;;12.45;4.60;;;;;;;14.38;59.99;97638.44;2261738;79;21122;-79
2021/05/05 13:40:51;;;;;;;5.50;4.58;;;;;;;14.44;60.72;97619.95;2260155;79;21094;-79
2021/05/05 13:43:57;;;;;;;6.47;5.87;;;;;;;15.50;62.14;97606.36;2260648;79;21133;-80
2021/05/05 13:47:05;;;;;;;8.03;5.25;;;;;;;16.84;59.85;97599.34;2260650;79;21138;-80
2021/05/05 13:50:01;;;;;;;6.25;4.20;;;;;;;17.98;57.36;97601.55;2259817;79;21435;-80
2021/05/05 13:53:02;;;;;;;7.25;4.12;;;;;;;18.78;54.26;97596.25;2261817;79;21102;-82
2021/05/05 13:56:04;;;;;;;5.45;4.03;;;;;;;19.08;52.31;97595.48;2261535;79;21140;-79
2021/05/05 13:59:05;;;;;;;5.03;4.00;;;;;;;19.44;51.46;97581.14;2260985;79;21525;-79
2021/05/05 14:02:06;;;;;;;4.08;2.27;;;;;;;19.78;50.63;97573.06;2260134;79;21131;-80
2021/05/05 14:05:07;;;;;;;3.80;3.00;;;;;;;19.96;48.93;97561.19;2260607;79;21086;-79
2021/05/05 14:08:08;;;;;;;2.62;2.22;;;;;;;19.81;49.43;97547.77;2261155;79;21506;-80
2021/05/05 14:11:09;;;;;;;1.75;1.60;;;;;;;19.98;48.64;97538.61;2260759;79;21113;-81
2021/05/05 14:14:10;;;;;;;4.40;1.62;;;;;;;19.52;48.75;97552.59;2261182;79;21121;-80
2021/05/05 14:17:11;;;;;;;1.95;1.67;;;;;;;19.07;49.30;97547.45;2261573;79;21118;-81
2021/05/05 14:20:12;;;;;;;3.50;2.00;;;;;;;18.97;48.99;97553.59;2261617;79;21145;-82
2021/05/05 14:23:13;;;;;;;2.90;2.10;;;;;;;18.88;49.92;97551.33;2262118;79;21114;-82
2021/05/05 14:26:16;;;;;;;2.52;1.70;;;;;;;19.04;49.36;97524.63;2262109;79;21403;-81
2021/05/05 14:29:19;;;;;;;2.50;2.07;;;;;;;19.14;48.46;97533.53;2262440;79;21379;-80